Time;durP1;ratioP1;P1;durP2;ratioP2;P2;SDS_P1;SDS_P2;PMS_P1;PMS_P2;Temp;Humidity;BMP_temperature;BMP_pressure;BME280_temperature;BME280_humidity;BME280_pressure;Samples;Min_cycle;Max_cycle;Signal;HPM_P1;HPM_P2
2021/01/14 00:01:00;;;;;;;2.63;2.30;;;16.30;40.50;;;;;;6140960;23;20196;-84
2021/01/14 00:03:28;;;;;;;3.03;2.38;;;16.30;40.50;;;;;;6140974;23;20196;-82
2021/01/14 00:05:56;;;;;;;2.65;2.13;;;16.30;40.40;;;;;;6141536;23;20259;-84
2021/01/14 00:08:21;;;;;;;3.10;2.53;;;16.30;40.50;;;;;;6115333;23;20139;-82
2021/01/14 00:10:48;;;;;;;3.10;2.33;;;16.30;40.40;;;;;;6090997;23;20219;-82
2021/01/14 00:13:14;;;;;;;2.90;2.50;;;16.30;40.40;;;;;;6141717;23;20468;-83
2021/01/14 00:15:39;;;;;;;3.03;2.47;;;16.30;40.40;;;;;;6141531;23;20139;-81
2021/01/14 00:18:05;;;;;;;2.95;2.40;;;16.30;40.40;;;;;;6140875;23;20133;-85
2021/01/14 00:20:31;;;;;;;3.10;2.40;;;16.30;40.40;;;;;;6115528;23;20627;-84
2021/01/14 00:22:57;;;;;;;3.03;2.67;;;16.30;40.50;;;;;;6114788;23;20150;-85
2021/01/14 00:25:22;;;;;;;3.10;2.28;;;16.30;40.40;;;;;;6140969;23;20170;-82
2021/01/14 00:27:51;;;;;;;3.10;2.40;;;16.30;40.50;;;;;;6141427;23;20148;-84
2021/01/14 00:30:22;;;;;;;3.30;2.40;;;16.30;40.40;;;;;;6140790;23;20295;-84
2021/01/14 00:32:47;;;;;;;3.13;2.60;;;16.30;40.50;;;;;;6116076;23;20580;-83
2021/01/14 00:35:15;;;;;;;3.00;2.40;;;16.30;40.50;;;;;;6140994;23;20225;-82
2021/01/14 00:37:53;;;;;;;3.10;2.50;;;16.30;40.50;;;;;;6110490;23;20248;-84
2021/01/14 00:40:37;;;;;;;3.28;2.80;;;16.20;40.50;;;;;;6112011;23;20133;-83
2021/01/14 00:43:15;;;;;;;3.08;2.53;;;16.20;40.60;;;;;;6111368;23;20205;-84
2021/01/14 00:45:42;;;;;;;2.78;2.33;;;16.30;40.60;;;;;;6111455;23;20211;-83
2021/01/14 00:48:09;;;;;;;2.47;2.28;;;16.30;40.40;;;;;;6111627;23;20141;-84
2021/01/14 00:50:44;;;;;;;2.72;2.30;;;16.30;40.40;;;;;;6110994;23;20161;-83
2021/01/14 00:53:09;;;;;;;2.97;2.35;;;16.30;40.50;;;;;;6111228;23;20136;-83
2021/01/14 00:55:35;;;;;;;3.25;2.63;;;16.20;40.60;;;;;;6110349;23;20152;-84
2021/01/14 00:58:02;;;;;;;3.58;2.83;;;16.30;40.60;;;;;;6112935;23;20133;-84
2021/01/14 01:00:27;;;;;;;2.83;2.45;;;16.30;40.70;;;;;;6110916;23;20192;-82
2021/01/14 01:02:54;;;;;;;3.00;2.47;;;16.20;40.70;;;;;;6111607;23;20589;-80
2021/01/14 01:05:21;;;;;;;3.28;2.60;;;16.20;40.70;;;;;;6086977;23;20149;-82
2021/01/14 01:07:52;;;;;;;2.97;2.50;;;16.20;40.70;;;;;;6061600;23;20164;-84
2021/01/14 01:10:18;;;;;;;3.42;2.42;;;16.20;40.70;;;;;;6062351;23;20152;-84
2021/01/14 01:12:50;;;;;;;2.72;2.42;;;16.20;40.70;;;;;;6085740;23;20211;-83
2021/01/14 01:15:17;;;;;;;2.83;2.50;;;16.20;40.70;;;;;;6086115;23;20231;-84
2021/01/14 01:17:43;;;;;;;3.30;2.60;;;16.20;40.70;;;;;;6085899;23;20145;-84
2021/01/14 01:20:09;;;;;;;3.42;2.70;;;16.20;40.70;;;;;;6111834;23;20133;-83
2021/01/14 01:22:35;;;;;;;2.88;2.50;;;16.20;40.60;;;;;;6110889;23;20137;-85
2021/01/14 01:25:00;;;;;;;3.47;2.65;;;16.20;40.70;;;;;;6111300;23;20192;-82
2021/01/14 01:27:26;;;;;;;3.08;2.40;;;16.20;40.70;;;;;;6112240;23;20157;-81
2021/01/14 01:29:53;;;;;;;3.17;2.47;;;16.20;40.70;;;;;;6111801;23;20137;-84
2021/01/14 01:32:19;;;;;;;3.10;2.58;;;16.20;40.70;;;;;;6111295;23;20141;-84
2021/01/14 01:34:45;;;;;;;2.90;2.40;;;16.30;40.70;;;;;;6111540;23;20187;-84
2021/01/14 01:37:11;;;;;;;3.28;2.50;;;16.20;40.70;;;;;;6121117;23;20196;-83
2021/01/14 01:39:36;;;;;;;2.70;2.30;;;16.20;40.60;;;;;;6115933;23;20576;-82
2021/01/14 01:42:03;;;;;;;3.17;2.60;;;16.20;40.70;;;;;;6140483;23;20159;-83
2021/01/14 01:44:29;;;;;;;3.20;2.53;;;16.20;40.70;;;;;;6140666;23;20139;-85
2021/01/14 01:46:55;;;;;;;3.28;2.50;;;16.30;40.70;;;;;;6140769;23;20141;-84
2021/01/14 01:49:20;;;;;;;3.00;2.50;;;16.20;40.60;;;;;;6140427;23;20635;-84
2021/01/14 01:51:46;;;;;;;3.30;2.50;;;16.20;40.70;;;;;;6140698;23;20216;-82
2021/01/14 01:54:12;;;;;;;3.42;2.70;;;16.20;40.70;;;;;;6140225;23;20172;-83
2021/01/14 01:56:38;;;;;;;3.33;2.60;;;16.20;40.60;;;;;;6140214;23;20136;-83
2021/01/14 01:59:06;;;;;;;3.13;2.75;;;16.20;40.70;;;;;;6142108;23;20183;-82
2021/01/14 02:01:33;;;;;;;3.88;2.88;;;16.20;40.70;;;;;;6092806;23;20128;-83
2021/01/14 02:03:58;;;;;;;3.38;2.47;;;16.20;40.60;;;;;;6068825;23;20156;-83
2021/01/14 02:06:24;;;;;;;3.20;2.58;;;16.20;40.70;;;;;;6142276;23;20140;-83
2021/01/14 02:08:55;;;;;;;3.42;2.60;;;16.20;40.80;;;;;;6142109;23;20132;-84
2021/01/14 02:11:34;;;;;;;2.35;2.15;;;16.20;40.80;;;;;;6142253;23;20136;-84
2021/01/14 02:14:19;;;;;;;2.97;2.35;;;16.20;40.90;;;;;;6116140;23;20567;-84
2021/01/14 02:16:50;;;;;;;3.35;2.50;;;16.20;40.90;;;;;;6093975;23;20160;-81
2021/01/14 02:19:40;;;;;;;3.45;2.60;;;16.20;40.80;;;;;;6092983;23;20192;-84
2021/01/14 02:22:29;;;;;;;3.28;2.60;;;16.20;40.90;;;;;;6115053;23;20136;-83
2021/01/14 02:25:02;;;;;;;3.20;2.63;;;16.20;40.90;;;;;;6141798;23;20136;-83
2021/01/14 02:27:29;;;;;;;3.72;2.70;;;16.20;40.90;;;;;;6142735;23;20183;-82
2021/01/14 02:29:57;;;;;;;3.70;2.90;;;16.20;40.90;;;;;;6117336;23;20140;-83
2021/01/14 02:32:27;;;;;;;3.85;2.88;;;16.20;41.60;;;;;;6116335;23;20144;-84
2021/01/14 02:34:53;;;;;;;3.22;2.42;;;16.20;41.00;;;;;;6141890;23;20242;-83
2021/01/14 02:37:19;;;;;;;3.17;2.53;;;16.10;40.90;;;;;;6142822;23;20187;-82
2021/01/14 02:39:47;;;;;;;2.58;2.28;;;16.20;41.00;;;;;;6142194;23;20164;-80
2021/01/14 02:42:12;;;;;;;3.67;2.50;;;16.20;40.90;;;;;;6141723;23;20141;-83
2021/01/14 02:44:38;;;;;;;3.05;2.55;;;16.20;40.90;;;;;;6142483;23;20603;-79
2021/01/14 02:47:05;;;;;;;3.45;2.50;;;16.20;40.80;;;;;;6142288;23;20595;-84
2021/01/14 02:49:39;;;;;;;3.38;2.75;;;16.20;40.80;;;;;;6115345;23;20143;-84
2021/01/14 02:52:06;;;;;;;3.58;2.63;;;16.20;40.80;;;;;;6092522;23;20143;-85
2021/01/14 02:54:32;;;;;;;3.20;2.40;;;16.30;40.80;;;;;;6091578;23;20620;-83
2021/01/14 02:56:58;;;;;;;3.47;2.83;;;16.20;40.80;;;;;;6117369;23;20144;-85
2021/01/14 02:59:25;;;;;;;3.67;2.70;;;16.20;40.80;;;;;;6092129;23;20155;-85
2021/01/14 03:01:51;;;;;;;3.40;2.58;;;16.20;40.90;;;;;;6142045;23;20219;-82
2021/01/14 03:04:20;;;;;;;3.45;2.53;;;16.20;41.00;;;;;;6141627;23;20140;-83
2021/01/14 03:06:46;;;;;;;3.17;2.60;;;16.20;40.80;;;;;;6091704;23;20155;-81
2021/01/14 03:09:14;;;;;;;3.58;2.80;;;16.20;40.90;;;;;;6141478;23;20133;-85
2021/01/14 03:11:41;;;;;;;2.88;2.42;;;16.20;40.90;;;;;;6142409;23;20132;-85
2021/01/14 03:14:07;;;;;;;3.45;2.67;;;16.20;40.90;;;;;;6141688;23;20179;-84
2021/01/14 03:16:56;;;;;;;3.40;2.78;;;16.20;40.90;;;;;;6141867;23;20214;-85
2021/01/14 03:19:30;;;;;;;3.20;2.53;;;16.20;40.90;;;;;;6139117;23;20472;-84
2021/01/14 03:22:00;;;;;;;3.25;2.53;;;16.20;40.90;;;;;;6141944;23;20168;-84
2021/01/14 03:24:29;;;;;;;3.53;2.55;;;16.20;40.90;;;;;;6143000;23;20464;-84
2021/01/14 03:26:55;;;;;;;3.45;2.70;;;16.20;41.00;;;;;;6142099;23;20141;-85
2021/01/14 03:29:21;;;;;;;2.97;2.67;;;16.20;40.90;;;;;;6141891;23;20160;-85
2021/01/14 03:31:49;;;;;;;3.47;2.60;;;16.10;40.90;;;;;;6115818;23;20626;-83
2021/01/14 03:34:15;;;;;;;3.15;2.47;;;16.10;41.00;;;;;;6141320;23;20499;-83
2021/01/14 03:37:13;;;;;;;2.80;2.50;;;16.10;41.00;;;;;;6140782;23;20128;-85
2021/01/14 03:39:33;;;;;;;2.88;2.33;;;16.10;40.90;;;;;;6136331;23;20155;-85
2021/01/14 03:42:00;;;;;;;3.88;2.70;;;16.10;41.00;;;;;;6141127;23;20133;-84
2021/01/14 03:44:26;;;;;;;3.17;2.70;;;16.20;41.00;;;;;;6141913;23;20143;-82
2021/01/14 03:46:52;;;;;;;2.92;2.50;;;16.10;41.00;;;;;;6090657;23;20164;-84
2021/01/14 03:49:18;;;;;;;3.65;2.88;;;16.10;41.00;;;;;;6140793;23;20151;-84
2021/01/14 03:51:44;;;;;;;3.70;2.70;;;16.20;41.00;;;;;;6115518;23;20136;-84
2021/01/14 03:54:11;;;;;;;3.00;2.60;;;16.20;40.90;;;;;;6115008;23;20187;-84
2021/01/14 03:56:38;;;;;;;3.20;2.63;;;16.20;41.00;;;;;;6115459;23;20211;-85
2021/01/14 03:59:07;;;;;;;3.10;2.67;;;16.20;41.00;;;;;;6140670;23;20163;-84
2021/01/14 04:01:33;;;;;;;4.22;2.50;;;16.20;41.00;;;;;;6115567;23;20141;-85
2021/01/14 04:03:58;;;;;;;3.72;2.83;;;16.20;41.00;;;;;;6114921;23;20472;-85
2021/01/14 04:06:37;;;;;;;3.55;2.60;;;16.10;41.00;;;;;;6140460;23;20140;-83
2021/01/14 04:09:05;;;;;;;3.72;2.80;;;16.20;41.00;;;;;;6090348;23;20177;-83
2021/01/14 04:11:32;;;;;;;3.42;2.67;;;16.20;41.00;;;;;;6114069;23;20191;-83
2021/01/14 04:14:01;;;;;;;3.25;2.60;;;16.20;41.10;;;;;;6115090;23;20207;-84
2021/01/14 04:16:27;;;;;;;3.70;2.70;;;16.20;41.00;;;;;;6139692;23;20152;-84
2021/01/14 04:18:53;;;;;;;3.13;2.60;;;16.10;41.00;;;;;;6140562;23;20133;-84
2021/01/14 04:21:19;;;;;;;3.55;2.72;;;16.10;41.10;;;;;;6140062;23;20187;-83
2021/01/14 04:23:45;;;;;;;3.83;2.70;;;16.10;41.20;;;;;;6140335;23;20164;-83
2021/01/14 04:26:11;;;;;;;3.10;2.60;;;16.10;41.30;;;;;;6140523;23;20143;-83
2021/01/14 04:28:37;;;;;;;3.75;3.05;;;16.10;41.30;;;;;;6140271;23;20137;-85
2021/01/14 04:31:12;;;;;;;3.63;2.53;;;16.10;41.20;;;;;;6114512;23;20164;-84
2021/01/14 04:33:39;;;;;;;3.20;2.60;;;16.10;41.20;;;;;;6115413;23;20183;-83
2021/01/14 04:36:06;;;;;;;3.85;2.92;;;16.10;41.00;;;;;;6115302;23;20132;-83
2021/01/14 04:38:33;;;;;;;3.90;2.88;;;16.10;41.00;;;;;;6139007;23;20188;-84
2021/01/14 04:41:03;;;;;;;3.63;2.78;;;16.10;41.00;;;;;;6114825;23;20132;-84
2021/01/14 04:43:33;;;;;;;3.13;2.38;;;16.10;41.00;;;;;;6140148;23;20135;-86
2021/01/14 04:46:11;;;;;;;3.47;2.83;;;16.10;41.00;;;;;;6139672;23;20140;-85
2021/01/14 04:48:46;;;;;;;3.30;2.40;;;16.10;41.10;;;;;;6140803;23;20154;-80
2021/01/14 04:51:19;;;;;;;3.08;2.58;;;16.10;41.10;;;;;;6141556;23;20137;-82
2021/01/14 04:53:51;;;;;;;4.20;2.60;;;16.20;41.00;;;;;;6141142;23;20168;-84
2021/01/14 04:56:19;;;;;;;2.92;2.40;;;16.20;41.00;;;;;;6116372;23;20145;-84
2021/01/14 04:58:50;;;;;;;2.95;2.30;;;16.20;41.00;;;;;;6141842;23;20139;-84
2021/01/14 05:01:24;;;;;;;3.40;2.75;;;16.20;41.00;;;;;;6115689;23;20159;-84
2021/01/14 05:03:51;;;;;;;3.58;2.75;;;16.10;41.00;;;;;;6092769;23;20139;-83
2021/01/14 05:06:19;;;;;;;3.55;2.65;;;16.20;40.80;;;;;;6116628;23;20171;-81
2021/01/14 05:08:46;;;;;;;3.08;2.50;;;16.30;40.70;;;;;;6115928;23;20203;-82
2021/01/14 05:11:13;;;;;;;2.80;2.40;;;16.30;40.50;;;;;;6141704;23;20137;-84
2021/01/14 05:13:39;;;;;;;3.40;2.67;;;16.30;40.60;;;;;;6116057;23;20175;-83
2021/01/14 05:16:06;;;;;;;3.35;2.70;;;16.30;40.60;;;;;;6115907;23;20129;-84
2021/01/14 05:18:34;;;;;;;3.63;2.60;;;16.30;40.30;;;;;;6141889;23;20139;-85
2021/01/14 05:21:02;;;;;;;3.60;2.60;;;16.30;40.40;;;;;;6141783;23;20132;-84
2021/01/14 05:23:31;;;;;;;3.28;2.63;;;16.30;40.30;;;;;;6116139;23;20132;-83
2021/01/14 05:25:58;;;;;;;3.05;2.67;;;16.30;40.60;;;;;;6116657;23;20156;-80
2021/01/14 05:28:25;;;;;;;3.85;2.90;;;16.30;40.30;;;;;;6142037;23;20132;-82
2021/01/14 05:30:52;;;;;;;2.58;2.38;;;16.30;40.30;;;;;;6141760;23;20160;-85
2021/01/14 05:33:23;;;;;;;2.95;2.40;;;16.30;40.20;;;;;;6142651;23;20159;-83
2021/01/14 05:35:51;;;;;;;4.47;2.53;;;16.40;40.10;;;;;;6117665;23;20140;-83
2021/01/14 05:38:23;;;;;;;3.20;2.65;;;16.40;40.20;;;;;;6143740;23;20191;-84
2021/01/14 05:43:52;;;;;;;3.03;2.50;;;16.30;40.20;;;;;;6143764;23;20190;-84
2021/01/14 05:46:26;;;;;;;3.10;2.47;;;16.30;40.30;;;;;;6118448;23;20136;-84
2021/01/14 05:48:56;;;;;;;3.65;2.63;;;16.30;40.30;;;;;;6143938;23;20149;-83
2021/01/14 05:51:24;;;;;;;2.90;2.40;;;16.30;40.30;;;;;;6117463;23;20136;-80
2021/01/14 05:54:04;;;;;;;3.22;2.40;;;16.40;40.10;;;;;;6143569;23;20246;-81
2021/01/14 05:56:47;;;;;;;3.00;2.40;;;16.40;40.00;;;;;;6117608;23;20133;-84
2021/01/14 05:59:14;;;;;;;3.28;2.50;;;16.40;40.00;;;;;;6143354;23;20188;-81
2021/01/14 06:01:52;;;;;;;3.20;2.60;;;16.30;40.10;;;;;;6143763;23;20159;-82
2021/01/14 06:04:33;;;;;;;3.50;2.80;;;16.30;40.00;;;;;;6143730;23;20132;-82
2021/01/14 06:07:06;;;;;;;3.05;2.58;;;16.40;39.90;;;;;;6142994;23;20144;-85
2021/01/14 06:09:44;;;;;;;3.83;2.63;;;16.40;39.90;;;;;;6118099;23;20168;-82
2021/01/14 06:12:19;;;;;;;3.28;2.75;;;16.40;39.80;;;;;;6143908;23;20137;-82
2021/01/14 06:14:45;;;;;;;2.67;2.45;;;16.40;39.70;;;;;;6143021;23;20167;-83
2021/01/14 06:17:14;;;;;;;3.10;2.35;;;16.50;39.60;;;;;;6142892;23;20136;-84
2021/01/14 06:19:41;;;;;;;2.80;2.50;;;16.50;39.60;;;;;;6116551;23;20182;-84
2021/01/14 06:22:07;;;;;;;3.05;2.63;;;16.40;39.70;;;;;;6143486;23;20136;-84
2021/01/14 06:24:37;;;;;;;2.90;2.40;;;16.40;39.60;;;;;;6117297;23;20156;-85
2021/01/14 06:27:06;;;;;;;3.28;2.60;;;16.40;39.60;;;;;;6093245;23;20663;-85
2021/01/14 06:29:34;;;;;;;3.20;2.58;;;16.40;39.70;;;;;;6143157;23;20188;-82
2021/01/14 06:32:19;;;;;;;2.80;2.30;;;16.40;39.70;;;;;;6143888;23;20213;-84
2021/01/14 06:34:50;;;;;;;3.35;2.70;;;16.30;39.70;;;;;;6142756;23;20164;-84
2021/01/14 06:37:22;;;;;;;3.35;2.78;;;16.30;39.80;;;;;;6142646;23;20207;-83
2021/01/14 06:39:55;;;;;;;2.80;2.50;;;16.30;39.80;;;;;;6117614;23;20152;-83
2021/01/14 06:42:23;;;;;;;3.10;2.50;;;16.30;39.70;;;;;;6117489;23;20128;-83
2021/01/14 06:44:53;;;;;;;3.65;2.55;;;16.40;39.60;;;;;;6142444;23;20220;-83
2021/01/14 06:47:39;;;;;;;3.35;2.67;;;16.40;39.50;;;;;;6142920;23;20136;-82
2021/01/14 06:50:23;;;;;;;2.78;2.53;;;16.40;39.40;;;;;;6141905;23;20218;-82
2021/01/14 06:52:51;;;;;;;2.85;2.40;;;16.40;39.50;;;;;;6117302;23;20176;-84
2021/01/14 06:55:23;;;;;;;3.33;2.58;;;16.40;39.40;;;;;;6117901;23;20172;-81
2021/01/14 06:58:17;;;;;;;3.75;2.70;;;16.50;39.20;;;;;;6117282;23;20517;-82
2021/01/14 07:00:47;;;;;;;2.85;2.30;;;16.40;39.20;;;;;;6117063;23;20132;-82
2021/01/14 07:05:52;;;;;;;3.47;2.58;;;16.50;39.10;;;;;;6143497;23;20188;-85
2021/01/14 07:08:37;;;;;;;2.75;2.45;;;16.40;39.20;;;;;;6143228;23;20155;-84
2021/01/14 07:11:06;;;;;;;2.85;2.45;;;16.40;39.30;;;;;;6116606;23;20128;-83
2021/01/14 07:13:39;;;;;;;3.30;2.53;;;16.40;39.20;;;;;;6142617;23;20133;-85
2021/01/14 07:16:08;;;;;;;2.92;2.60;;;16.40;39.20;;;;;;6092720;23;20602;-83
2021/01/14 07:18:35;;;;;;;3.40;2.40;;;16.40;39.30;;;;;;6142353;23;20160;-84
2021/01/14 07:21:21;;;;;;;3.70;2.85;;;16.40;39.40;;;;;;6117861;23;20532;-84
2021/01/14 07:23:58;;;;;;;3.35;2.55;;;16.40;39.30;;;;;;6144409;23;20197;-82
2021/01/14 07:26:25;;;;;;;2.58;2.38;;;16.50;39.20;;;;;;6093293;23;20188;-84
2021/01/14 07:28:52;;;;;;;3.05;2.33;;;16.50;39.00;;;;;;6117625;23;20156;-84
2021/01/14 07:32:07;;;;;;;2.97;2.20;;;16.50;38.90;;;;;;6117464;23;20148;-84
2021/01/14 07:34:41;;;;;;;3.00;2.47;;;16.40;39.10;;;;;;6139605;23;20175;-84
2021/01/14 07:37:47;;;;;;;2.97;2.60;;;16.40;39.10;;;;;;6112916;23;20207;-83
2021/01/14 07:40:14;;;;;;;3.25;2.55;;;16.40;39.00;;;;;;6114423;23;20616;-85
2021/01/14 07:42:39;;;;;;;2.88;2.40;;;16.50;39.10;;;;;;6088942;23;20256;-82
2021/01/14 07:45:24;;;;;;;3.10;2.50;;;16.40;39.10;;;;;;6089072;23;20157;-83
2021/01/14 07:47:50;;;;;;;3.28;2.53;;;16.40;39.10;;;;;;6115358;23;20160;-84
2021/01/14 07:50:26;;;;;;;3.45;2.72;;;16.50;38.90;;;;;;6113941;23;20181;-82
2021/01/14 07:52:57;;;;;;;3.72;2.67;;;16.50;38.90;;;;;;6065954;23;20152;-84
2021/01/14 07:55:47;;;;;;;2.85;2.33;;;16.50;38.90;;;;;;6064798;23;20172;-84
2021/01/14 07:58:23;;;;;;;3.55;2.80;;;16.60;38.80;;;;;;6116020;23;20140;-83
2021/01/14 08:01:09;;;;;;;3.50;2.50;;;16.50;38.80;;;;;;6115178;23;20497;-84
2021/01/14 08:03:42;;;;;;;2.85;2.50;;;16.60;38.80;;;;;;6116442;23;20133;-84
2021/01/14 08:06:19;;;;;;;3.28;2.75;;;16.60;38.70;;;;;;6115436;23;20161;-83
2021/01/14 08:09:05;;;;;;;2.95;2.58;;;16.60;38.60;;;;;;6116741;23;20133;-84
2021/01/14 08:11:32;;;;;;;3.40;2.38;;;16.70;38.50;;;;;;6114706;23;20192;-80
2021/01/14 08:14:03;;;;;;;2.92;2.60;;;16.60;38.60;;;;;;6116462;23;20168;-85
2021/01/14 08:16:40;;;;;;;3.47;2.67;;;16.60;38.60;;;;;;6113787;23;20200;-84
2021/01/14 08:19:29;;;;;;;3.15;2.55;;;16.60;38.60;;;;;;6111279;23;20137;-83
2021/01/14 08:21:57;;;;;;;3.40;2.53;;;16.70;38.60;;;;;;6112063;23;20137;-83
2021/01/14 08:24:46;;;;;;;2.70;2.45;;;16.60;38.70;;;;;;6112032;23;20137;-83
2021/01/14 08:27:20;;;;;;;3.60;2.70;;;16.70;39.40;;;;;;6111470;23;20137;-85
2021/01/14 08:30:04;;;;;;;3.28;2.80;;;16.60;38.70;;;;;;6113175;23;20136;-81
2021/01/14 08:32:36;;;;;;;3.75;2.63;;;16.70;38.70;;;;;;6104019;23;20136;-79
2021/01/14 08:35:27;;;;;;;3.10;2.50;;;16.70;38.60;;;;;;6107137;23;20196;-80
2021/01/14 08:37:53;;;;;;;3.20;2.50;;;16.60;38.60;;;;;;6124817;23;20188;-78
2021/01/14 08:40:24;;;;;;;3.55;2.60;;;16.70;38.60;;;;;;6111394;23;20160;-79
2021/01/14 08:43:04;;;;;;;3.53;2.70;;;16.70;38.50;;;;;;6136452;23;20512;-79
2021/01/14 08:45:32;;;;;;;3.17;2.50;;;16.70;38.50;;;;;;6109034;23;20215;-83
2021/01/14 08:48:05;;;;;;;3.17;2.67;;;16.70;38.60;;;;;;6080173;23;20174;-83
2021/01/14 08:50:36;;;;;;;3.08;2.50;;;16.70;38.50;;;;;;6130315;23;20643;-82
2021/01/14 08:53:06;;;;;;;3.08;2.75;;;16.70;38.40;;;;;;6103802;23;20491;-81
2021/01/14 08:55:41;;;;;;;3.20;2.55;;;16.70;38.40;;;;;;6106252;23;20515;-79
2021/01/14 08:58:08;;;;;;;3.40;2.63;;;16.60;38.50;;;;;;6130182;23;20639;-79
2021/01/14 09:00:36;;;;;;;3.10;2.60;;;16.60;38.70;;;;;;6135982;23;20508;-79
2021/01/14 09:03:11;;;;;;;3.20;2.78;;;16.60;38.50;;;;;;6109694;23;20184;-79
2021/01/14 09:05:51;;;;;;;3.10;2.25;;;16.70;38.40;;;;;;6107500;23;20159;-80
2021/01/14 09:08:17;;;;;;;4.00;2.50;;;16.70;38.40;;;;;;6134264;23;20151;-80
2021/01/14 09:10:54;;;;;;;3.45;2.40;;;16.70;38.30;;;;;;6137226;23;20136;-81
2021/01/14 09:13:30;;;;;;;3.15;2.47;;;16.70;38.50;;;;;;6113541;23;20140;-80
2021/01/14 09:16:08;;;;;;;4.78;2.60;;;16.70;38.50;;;;;;6112961;23;20139;-80
2021/01/14 09:18:36;;;;;;;2.70;2.33;;;16.80;38.50;;;;;;6140030;23;20132;-83
2021/01/14 09:21:04;;;;;;;2.88;2.55;;;16.80;38.40;;;;;;6139812;23;20143;-79
2021/01/14 09:23:32;;;;;;;3.08;2.50;;;16.90;38.20;;;;;;6139922;23;20132;-82
2021/01/14 09:26:00;;;;;;;2.80;2.42;;;16.90;38.20;;;;;;6087596;23;20160;-78
2021/01/14 09:28:27;;;;;;;3.95;2.88;;;16.90;38.40;;;;;;6104391;23;20576;-78
2021/01/14 09:31:13;;;;;;;3.00;2.47;;;16.90;38.40;;;;;;6129673;23;20140;-78
2021/01/14 09:33:41;;;;;;;3.92;2.78;;;16.90;38.40;;;;;;6102995;23;20188;-79
2021/01/14 09:36:23;;;;;;;3.45;2.67;;;16.90;38.30;;;;;;6107489;23;20133;-78
2021/01/14 09:38:53;;;;;;;2.72;2.28;;;16.90;38.40;;;;;;6133425;23;20188;-78
2021/01/14 09:41:31;;;;;;;3.58;2.70;;;16.90;38.30;;;;;;6135471;23;20140;-78
2021/01/14 09:44:07;;;;;;;3.40;2.55;;;16.90;38.40;;;;;;6135762;23;20132;-78
2021/01/14 09:46:53;;;;;;;3.08;2.70;;;16.80;38.40;;;;;;6108474;23;20200;-78
2021/01/14 09:49:27;;;;;;;3.15;2.30;;;16.90;38.60;;;;;;6102258;23;20149;-78
2021/01/14 09:51:53;;;;;;;3.58;2.55;;;16.80;38.60;;;;;;6133895;23;20143;-77
2021/01/14 09:54:20;;;;;;;3.53;2.58;;;16.80;38.40;;;;;;6105498;23;20647;-78
2021/01/14 09:56:50;;;;;;;3.25;2.72;;;16.90;38.30;;;;;;6133039;23;20152;-78
2021/01/14 09:59:33;;;;;;;5.10;2.47;;;16.90;38.20;;;;;;6134805;23;20152;-79
2021/01/14 10:02:19;;;;;;;4.60;2.67;;;16.90;38.40;;;;;;6106748;23;20193;-79
2021/01/14 10:05:00;;;;;;;5.07;2.88;;;16.90;38.30;;;;;;6085420;23;20155;-78
2021/01/14 10:07:31;;;;;;;3.47;2.83;;;17.00;38.30;;;;;;6135224;23;20136;-79
2021/01/14 10:09:56;;;;;;;4.57;2.75;;;16.90;39.10;;;;;;6086406;23;20160;-79
2021/01/14 10:12:24;;;;;;;3.47;2.65;;;16.90;38.70;;;;;;6108321;23;20156;-78
2021/01/14 10:15:09;;;;;;;3.50;2.70;;;16.90;38.70;;;;;;6109141;23;20172;-79
2021/01/14 10:17:38;;;;;;;2.90;2.60;;;16.90;38.70;;;;;;6110866;23;20152;-79
2021/01/14 10:20:08;;;;;;;3.08;2.33;;;16.90;38.60;;;;;;6134308;23;20267;-78
2021/01/14 10:22:43;;;;;;;3.10;2.55;;;16.90;38.70;;;;;;6083984;23;20158;-80
2021/01/14 10:25:19;;;;;;;3.67;2.70;;;16.90;38.60;;;;;;6110275;23;20169;-79
2021/01/14 10:28:04;;;;;;;3.45;2.80;;;17.00;38.60;;;;;;6136628;23;20136;-79
2021/01/14 10:30:30;;;;;;;3.90;2.72;;;17.00;38.60;;;;;;6113035;23;20136;-79
2021/01/14 10:33:07;;;;;;;3.60;2.42;;;17.10;38.40;;;;;;6089500;23;20136;-79
2021/01/14 10:35:35;;;;;;;3.45;2.58;;;17.10;38.40;;;;;;6089568;23;20266;-79
2021/01/14 10:38:14;;;;;;;3.08;2.55;;;17.10;38.30;;;;;;6112023;23;20184;-79
2021/01/14 10:40:47;;;;;;;3.40;2.78;;;17.10;38.30;;;;;;6138319;23;20159;-77
2021/01/14 10:43:29;;;;;;;3.10;2.53;;;17.10;38.40;;;;;;6112146;23;20139;-79
2021/01/14 10:45:56;;;;;;;4.05;2.60;;;17.10;38.40;;;;;;6137274;23;20147;-79
2021/01/14 10:48:23;;;;;;;3.25;2.60;;;17.10;38.40;;;;;;6083648;23;20186;-80
2021/01/14 10:50:54;;;;;;;3.67;2.83;;;17.10;38.30;;;;;;6109532;23;20163;-79
2021/01/14 10:53:30;;;;;;;3.67;2.70;;;17.10;38.30;;;;;;6112818;23;20163;-79
2021/01/14 10:56:01;;;;;;;3.72;2.35;;;17.10;38.30;;;;;;6113821;23;20699;-79
2021/01/14 10:58:28;;;;;;;3.67;2.60;;;17.10;38.30;;;;;;6109859;23;20208;-78
2021/01/14 11:00:55;;;;;;;4.07;2.80;;;17.10;38.30;;;;;;6137238;23;20136;-80
2021/01/14 11:03:23;;;;;;;3.70;2.70;;;17.10;38.30;;;;;;6111561;23;20216;-79
2021/01/14 11:05:58;;;;;;;4.38;3.05;;;17.00;38.40;;;;;;6138309;23;20247;-80
2021/01/14 11:08:26;;;;;;;4.97;2.63;;;17.00;38.40;;;;;;6112524;23;20143;-79
2021/01/14 11:11:05;;;;;;;2.95;2.42;;;17.10;38.90;;;;;;6111938;23;20239;-79
2021/01/14 11:13:47;;;;;;;3.08;2.60;;;17.20;38.00;;;;;;6106985;23;20147;-80
2021/01/14 11:16:15;;;;;;;3.58;2.80;;;17.20;38.10;;;;;;6110254;23;20139;-79
2021/01/14 11:18:43;;;;;;;3.45;2.78;;;17.20;38.10;;;;;;6108002;23;20133;-79
2021/01/14 11:21:14;;;;;;;4.03;2.80;;;17.20;38.00;;;;;;6082731;23;20132;-80
2021/01/14 11:23:41;;;;;;;4.18;2.78;;;17.20;37.90;;;;;;6082053;23;20148;-79
2021/01/14 11:26:07;;;;;;;4.90;3.28;;;17.20;37.80;;;;;;6131921;23;20132;-79
2021/01/14 11:28:38;;;;;;;3.28;2.70;;;17.30;37.70;;;;;;6132362;23;20133;-78
2021/01/14 11:31:05;;;;;;;3.28;2.75;;;17.30;37.60;;;;;;6106677;23;20508;-79
2021/01/14 11:33:31;;;;;;;4.35;2.85;;;17.30;37.80;;;;;;6132890;23;20143;-77
2021/01/14 11:36:00;;;;;;;3.35;2.55;;;17.30;37.80;;;;;;6111438;23;20583;-79
2021/01/14 11:38:27;;;;;;;3.95;2.80;;;17.20;37.90;;;;;;6138231;23;20239;-79
2021/01/14 11:40:54;;;;;;;3.42;2.70;;;17.20;37.80;;;;;;6137191;23;20140;-79
2021/01/14 11:43:28;;;;;;;2.97;2.67;;;17.20;37.90;;;;;;6138052;23;20136;-79
2021/01/14 11:45:54;;;;;;;4.00;2.28;;;17.20;37.80;;;;;;6138663;23;20139;-79
2021/01/14 11:48:29;;;;;;;3.65;2.60;;;17.20;37.80;;;;;;6137484;23;20140;-80
2021/01/14 11:50:55;;;;;;;3.58;2.63;;;17.30;37.70;;;;;;6137828;23;20147;-80
2021/01/14 11:53:21;;;;;;;2.90;2.60;;;17.20;37.70;;;;;;6112082;23;20587;-80
2021/01/14 11:55:48;;;;;;;3.50;2.88;;;17.30;37.70;;;;;;6138497;23;20254;-79
2021/01/14 11:58:22;;;;;;;3.65;2.40;;;17.20;37.70;;;;;;6139048;23;20132;-79
2021/01/14 12:00:49;;;;;;;4.10;2.97;;;17.10;37.80;;;;;;6138942;23;20219;-79
2021/01/14 12:03:24;;;;;;;2.63;2.35;;;17.10;37.80;;;;;;6138892;23;20175;-79
2021/01/14 12:05:52;;;;;;;2.78;2.40;;;17.10;37.80;;;;;;6138967;23;20143;-79
2021/01/14 12:08:26;;;;;;;3.28;2.60;;;17.10;37.80;;;;;;6138854;23;20136;-79
2021/01/14 12:10:58;;;;;;;3.17;2.53;;;17.10;37.80;;;;;;6138646;23;20159;-79
2021/01/14 12:13:26;;;;;;;4.05;2.80;;;17.10;37.80;;;;;;6111774;23;20136;-79
2021/01/14 12:15:53;;;;;;;3.00;2.50;;;17.10;37.80;;;;;;6138589;23;20156;-79
2021/01/14 12:18:18;;;;;;;3.38;2.88;;;17.10;37.80;;;;;;6138755;23;20168;-80
2021/01/14 12:20:46;;;;;;;3.40;2.90;;;17.10;37.80;;;;;;6139119;23;20568;-79
2021/01/14 12:23:21;;;;;;;3.13;2.50;;;17.10;37.80;;;;;;6138412;23;20132;-79
2021/01/14 12:25:55;;;;;;;3.60;2.90;;;17.10;37.80;;;;;;6112790;23;20206;-80
2021/01/14 12:28:23;;;;;;;2.75;2.40;;;17.10;37.80;;;;;;6114015;23;20142;-78
2021/01/14 12:30:51;;;;;;;3.25;2.80;;;17.00;37.80;;;;;;6139677;23;20167;-79
2021/01/14 12:33:19;;;;;;;3.47;2.63;;;17.00;37.70;;;;;;6139757;23;20152;-79
2021/01/14 12:35:47;;;;;;;3.80;2.70;;;17.10;37.80;;;;;;6140229;23;20167;-79
2021/01/14 12:38:13;;;;;;;4.35;2.83;;;17.00;37.70;;;;;;6140021;23;20192;-79
2021/01/14 12:40:42;;;;;;;3.20;2.70;;;17.10;37.70;;;;;;6066182;23;20238;-78
2021/01/14 12:43:08;;;;;;;3.20;2.60;;;17.00;37.80;;;;;;6113012;23;20152;-78
2021/01/14 12:45:34;;;;;;;3.03;2.63;;;17.00;37.60;;;;;;6113644;23;20200;-79
2021/01/14 12:48:00;;;;;;;3.05;2.75;;;17.10;37.70;;;;;;6089490;23;20156;-79
2021/01/14 12:50:25;;;;;;;3.17;2.60;;;17.00;37.70;;;;;;6088281;23;20167;-78
2021/01/14 12:52:52;;;;;;;2.88;2.58;;;17.00;37.70;;;;;;6113776;23;20140;-78
2021/01/14 12:55:18;;;;;;;3.42;2.60;;;17.00;37.80;;;;;;6111743;23;20163;-80
2021/01/14 12:57:46;;;;;;;4.38;2.65;;;17.00;37.70;;;;;;6111260;23;20133;-80
2021/01/14 13:00:16;;;;;;;2.97;2.60;;;17.10;37.80;;;;;;6112322;23;20132;-80
2021/01/14 13:02:43;;;;;;;2.92;2.53;;;17.00;37.80;;;;;;6138776;23;20143;-80
2021/01/14 13:05:10;;;;;;;3.20;2.50;;;17.00;37.80;;;;;;6113801;23;20160;-80
2021/01/14 13:07:36;;;;;;;3.30;2.33;;;16.90;37.90;;;;;;6138930;23;20422;-79
2021/01/14 13:10:06;;;;;;;3.10;2.60;;;16.90;37.90;;;;;;6111163;23;20140;-79
2021/01/14 13:12:32;;;;;;;3.05;2.45;;;16.90;37.80;;;;;;6063441;23;20223;-80